createdAt,value
2022-08-17T00:00:16.569Z,66.96
2022-08-17T00:02:57.768Z,67.41
2022-08-17T00:05:25.034Z,67.26
2022-08-17T00:07:52.122Z,67.38
2022-08-17T00:10:19.394Z,67.28
2022-08-17T00:12:46.766Z,67.29
2022-08-17T00:15:15.508Z,67.40
2022-08-17T00:17:47.772Z,67.18
2022-08-17T00:20:15.875Z,67.70
2022-08-17T00:22:45.664Z,67.57
2022-08-17T00:25:17.172Z,68.06
2022-08-17T00:27:44.267Z,68.02
2022-08-17T00:30:12.776Z,68.28
2022-08-17T00:33:13.721Z,68.80
2022-08-17T00:35:34.939Z,68.85
2022-08-17T00:38:04.280Z,68.46
2022-08-17T00:40:44.220Z,68.69
2022-08-17T00:43:15.064Z,68.57
2022-08-17T00:45:42.466Z,68.97
2022-08-17T00:48:29.531Z,68.75
2022-08-17T00:51:07.413Z,68.54
2022-08-17T00:53:38.991Z,68.70
2022-08-17T00:56:10.916Z,68.77
2022-08-17T00:58:41.245Z,68.38
2022-08-17T01:01:09.947Z,68.09
2022-08-17T01:03:38.895Z,68.08
2022-08-17T01:06:08.268Z,67.90
2022-08-17T01:08:36.662Z,67.81
2022-08-17T01:11:05.526Z,67.59
2022-08-17T01:13:40.718Z,67.45
2022-08-17T01:16:25.570Z,67.42
2022-08-17T01:19:02.473Z,67.35
2022-08-17T01:22:00.654Z,67.42
2022-08-17T01:24:27.833Z,67.37
2022-08-17T01:26:56.664Z,67.31
2022-08-17T01:29:26.020Z,67.41
2022-08-17T01:31:58.768Z,67.55
2022-08-17T01:34:31.569Z,67.74
2022-08-17T01:37:13.235Z,67.58
2022-08-17T01:39:58.274Z,67.75
2022-08-17T01:42:38.305Z,67.92
2022-08-17T01:45:12.461Z,67.91
2022-08-17T01:47:40.995Z,68.23
2022-08-17T01:50:16.368Z,67.79
2022-08-17T01:52:49.576Z,67.88
2022-08-17T01:55:27.291Z,68.02
2022-08-17T01:57:55.669Z,67.51
2022-08-17T02:00:24.073Z,67.74
2022-08-17T02:02:53.053Z,67.63
2022-08-17T02:05:20.752Z,67.51
2022-08-17T02:08:00.645Z,67.93
2022-08-17T02:10:34.109Z,67.91
2022-08-17T02:13:03.963Z,67.99
2022-08-17T02:15:35.403Z,68.07
2022-08-17T02:18:05.627Z,68.09
2022-08-17T02:20:42.126Z,68.07
2022-08-17T02:23:13.203Z,68.40
2022-08-17T02:25:43.539Z,68.48
2022-08-17T02:28:11.331Z,68.23
2022-08-17T02:31:01.410Z,68.22
2022-08-17T02:33:41.629Z,68.30
2022-08-17T02:36:09.791Z,68.04
2022-08-17T02:38:38.462Z,67.91
2022-08-17T02:41:08.803Z,66.91
2022-08-17T02:43:45.462Z,65.68
2022-08-17T02:46:14.791Z,64.50
2022-08-17T02:48:41.906Z,63.54
2022-08-17T02:51:09.331Z,62.68
2022-08-17T02:53:36.450Z,61.62
2022-08-17T02:56:04.383Z,60.24
2022-08-17T02:58:35.331Z,59.98
2022-08-17T03:01:06.247Z,60.01
2022-08-17T03:03:33.757Z,58.70
2022-08-17T03:06:01.538Z,57.05
2022-08-17T03:08:30.971Z,56.05
2022-08-17T03:10:58.025Z,54.96
2022-08-17T03:13:25.215Z,54.78
2022-08-17T03:15:52.348Z,54.91
2022-08-17T03:18:25.435Z,54.42
2022-08-17T03:20:58.693Z,52.29
2022-08-17T03:23:29.627Z,50.43
2022-08-17T03:25:58.484Z,50.34
2022-08-17T03:28:25.850Z,50.68
2022-08-17T03:30:53.157Z,48.80
2022-08-17T03:33:20.823Z,48.02
2022-08-17T03:35:48.450Z,49.79
2022-08-17T03:38:17.476Z,52.32
2022-08-17T03:40:56.753Z,50.84
2022-08-17T03:43:29.829Z,48.73
2022-08-17T03:46:34.066Z,47.22
2022-08-17T03:49:26.868Z,44.71
2022-08-17T03:52:13.791Z,43.31
2022-08-17T03:55:00.909Z,42.28
2022-08-17T03:57:29.280Z,41.55
2022-08-17T03:59:57.751Z,41.22
2022-08-17T04:02:29.307Z,43.19
2022-08-17T04:04:56.979Z,45.63
2022-08-17T04:07:26.027Z,47.32
2022-08-17T04:09:53.341Z,46.92
2022-08-17T04:12:22.144Z,46.27
2022-08-17T04:14:53.070Z,43.20
2022-08-17T04:17:24.875Z,40.92
2022-08-17T04:19:52.431Z,38.25
2022-08-17T04:22:30.152Z,37.01
2022-08-17T04:25:09.705Z,35.88
2022-08-17T04:27:37.998Z,35.51
2022-08-17T04:30:07.439Z,33.65
2022-08-17T04:33:06.358Z,32.74
2022-08-17T04:35:44.163Z,31.19
2022-08-17T04:38:14.706Z,30.59
2022-08-17T04:41:01.825Z,29.13
2022-08-17T04:43:31.071Z,27.40
2022-08-17T04:46:04.899Z,27.66
2022-08-17T04:48:37.995Z,28.99
2022-08-17T04:51:10.197Z,28.62
2022-08-17T04:53:39.656Z,29.45
2022-08-17T04:56:16.616Z,28.95
2022-08-17T04:58:50.160Z,28.78
2022-08-17T05:01:24.065Z,27.57
2022-08-17T05:03:57.295Z,26.66
2022-08-17T05:06:24.706Z,25.78
2022-08-17T05:08:52.363Z,25.94
2022-08-17T05:11:19.620Z,25.68
2022-08-17T05:13:50.206Z,26.44
2022-08-17T05:16:18.696Z,25.42
2022-08-17T05:18:46.223Z,23.58
2022-08-17T05:21:14.972Z,23.45
2022-08-17T05:23:47.156Z,23.34
2022-08-17T05:26:26.773Z,23.28
2022-08-17T05:29:00.578Z,22.85
2022-08-17T05:31:31.218Z,22.44
2022-08-17T05:33:59.129Z,22.48
2022-08-17T05:36:43.414Z,22.14
2022-08-17T05:39:16.249Z,21.97
2022-08-17T05:41:47.299Z,22.13
2022-08-17T05:44:16.584Z,21.85
2022-08-17T05:46:49.131Z,21.38
2022-08-17T05:49:21.194Z,20.66
2022-08-17T05:51:55.550Z,20.04
2022-08-17T05:54:53.883Z,20.03
2022-08-17T05:57:56.052Z,20.74
2022-08-17T06:00:26.461Z,20.76
2022-08-17T06:03:12.997Z,18.87
2022-08-17T06:06:00.199Z,18.01
2022-08-17T06:08:56.876Z,18.99
2022-08-17T06:11:43.681Z,18.07
2022-08-17T06:14:31.697Z,18.50
2022-08-17T06:17:13.572Z,17.39
2022-08-17T06:20:14.365Z,18.85
2022-08-17T06:22:46.362Z,19.07
2022-08-17T06:25:32.237Z,19.23
2022-08-17T06:28:08.723Z,19.85
2022-08-17T06:30:59.855Z,20.23
2022-08-17T06:33:35.282Z,20.19
2022-08-17T06:36:24.992Z,21.57
2022-08-17T06:39:25.104Z,22.04
2022-08-17T06:42:07.532Z,23.09
2022-08-17T06:44:54.003Z,22.48
2022-08-17T06:47:31.173Z,23.28
2022-08-17T06:50:04.279Z,25.00
2022-08-17T06:52:46.906Z,26.17
2022-08-17T06:55:24.816Z,27.12
2022-08-17T06:57:58.222Z,27.68
2022-08-17T07:00:37.010Z,29.23
2022-08-17T07:03:23.787Z,30.79
2022-08-17T07:06:12.597Z,32.46
2022-08-17T07:09:03.558Z,33.70
2022-08-17T07:11:38.575Z,34.24
2022-08-17T07:14:38.583Z,36.25
2022-08-17T07:17:18.563Z,37.46
2022-08-17T07:19:49.422Z,37.64
2022-08-17T07:22:50.357Z,37.91
2022-08-17T07:25:23.547Z,37.44
2022-08-17T07:27:56.342Z,38.41
2022-08-17T07:30:27.111Z,39.55
2022-08-17T07:32:59.447Z,38.79
2022-08-17T07:35:37.762Z,40.07
2022-08-17T07:38:26.796Z,39.48
2022-08-17T07:41:04.871Z,39.50
2022-08-17T07:43:37.701Z,39.55
2022-08-17T07:46:30.086Z,39.30
2022-08-17T07:49:03.634Z,39.70
2022-08-17T07:51:34.000Z,38.95
2022-08-17T07:54:22.711Z,39.60
2022-08-17T07:57:04.449Z,39.75
2022-08-17T07:59:36.795Z,38.27
2022-08-17T08:02:38.409Z,37.86
2022-08-17T08:05:13.002Z,37.59
2022-08-17T08:07:56.545Z,37.93
2022-08-17T08:10:36.872Z,37.61
2022-08-17T08:13:23.935Z,37.82
2022-08-17T08:15:55.862Z,37.66
2022-08-17T08:18:38.673Z,37.57
2022-08-17T08:21:42.235Z,37.73
2022-08-17T08:24:30.148Z,37.04
2022-08-17T08:27:36.858Z,37.29
2022-08-17T08:30:16.538Z,37.29
2022-08-17T08:33:07.757Z,37.32
2022-08-17T08:35:34.774Z,36.93
2022-08-17T08:38:16.967Z,37.39
2022-08-17T08:41:01.565Z,37.27
2022-08-17T08:43:43.887Z,36.84
2022-08-17T08:46:29.326Z,37.18
2022-08-17T08:50:09.236Z,36.30
2022-08-17T08:53:10.223Z,36.09
2022-08-17T08:56:00.554Z,36.11
2022-08-17T08:58:54.041Z,36.80
2022-08-17T09:01:38.268Z,36.65
2022-08-17T09:04:26.533Z,36.41
2022-08-17T09:07:22.432Z,36.75
2022-08-17T09:09:59.654Z,36.00
2022-08-17T09:12:48.950Z,36.70
2022-08-17T09:15:35.069Z,36.26
2022-08-17T09:19:00.068Z,36.59
2022-08-17T09:21:07.984Z,36.26
2022-08-17T09:23:59.645Z,35.16
2022-08-17T09:26:35.326Z,36.08
2022-08-17T09:29:08.775Z,36.18
2022-08-17T09:31:48.951Z,36.70
2022-08-17T09:34:29.579Z,35.86
2022-08-17T09:37:03.641Z,36.15
2022-08-17T09:39:41.816Z,36.23
2022-08-17T09:42:32.423Z,36.45
2022-08-17T09:45:23.818Z,36.32
2022-08-17T09:48:05.081Z,36.13
2022-08-17T09:51:03.771Z,35.97
2022-08-17T09:53:32.257Z,35.61
2022-08-17T09:56:27.755Z,34.97
2022-08-17T09:59:38.710Z,35.44
2022-08-17T10:02:45.043Z,35.20
2022-08-17T10:05:49.542Z,34.78
2022-08-17T10:09:09.057Z,34.83
2022-08-17T10:12:04.645Z,35.51
2022-08-17T10:15:09.899Z,34.75
2022-08-17T10:18:03.839Z,34.48
2022-08-17T10:21:21.727Z,34.79
2022-08-17T10:24:13.390Z,34.53
2022-08-17T10:26:56.044Z,34.48
2022-08-17T10:29:49.254Z,34.51
2022-08-17T10:32:32.988Z,34.19
2022-08-17T10:35:26.131Z,34.86
2022-08-17T10:37:56.147Z,34.57
2022-08-17T10:40:45.606Z,34.40
2022-08-17T10:43:15.613Z,34.25
2022-08-17T10:46:30.043Z,34.67
2022-08-17T10:49:23.899Z,34.40
2022-08-17T10:51:57.113Z,34.55
2022-08-17T10:54:39.214Z,34.06
2022-08-17T10:57:28.402Z,34.13
2022-08-17T10:59:57.069Z,34.22
2022-08-17T11:02:40.849Z,34.31
2022-08-17T11:05:20.671Z,33.91
2022-08-17T11:08:26.568Z,33.44
2022-08-17T11:10:59.031Z,33.15
2022-08-17T11:13:38.356Z,33.80
2022-08-17T11:16:33.336Z,33.35
2022-08-17T11:19:30.825Z,34.05
2022-08-17T11:22:31.311Z,33.51
2022-08-17T11:25:35.799Z,33.76
2022-08-17T11:28:25.071Z,33.13
2022-08-17T11:30:59.721Z,33.76
2022-08-17T11:33:30.325Z,33.77
2022-08-17T11:36:18.222Z,34.25
2022-08-17T11:38:46.354Z,33.91
2022-08-17T11:41:16.427Z,33.68
2022-08-17T11:44:04.880Z,33.92
2022-08-17T11:47:08.868Z,33.55
2022-08-17T11:50:00.593Z,33.70
2022-08-17T11:52:45.948Z,33.56
2022-08-17T11:55:41.766Z,32.95
2022-08-17T11:58:29.494Z,32.59
2022-08-17T12:00:59.027Z,32.89
2022-08-17T12:03:55.392Z,32.61
2022-08-17T12:06:54.989Z,32.71
2022-08-17T12:09:26.491Z,33.26
2022-08-17T12:12:12.962Z,32.65
2022-08-17T12:15:09.542Z,32.90
2022-08-17T12:17:40.815Z,32.76
2022-08-17T12:20:24.201Z,33.28
2022-08-17T12:23:04.984Z,33.20
2022-08-17T12:25:47.552Z,32.88
2022-08-17T12:28:30.588Z,33.44
2022-08-17T12:31:02.577Z,33.76
2022-08-17T12:33:30.491Z,33.48
2022-08-17T12:36:04.645Z,33.07
2022-08-17T12:38:35.220Z,32.45
2022-08-17T12:41:29.295Z,32.40
2022-08-17T12:44:31.068Z,32.58
2022-08-17T12:47:21.064Z,32.58
2022-08-17T12:49:51.733Z,32.77
2022-08-17T12:52:24.892Z,32.32
2022-08-17T12:54:57.477Z,32.44
2022-08-17T12:57:33.235Z,32.91
2022-08-17T13:00:26.152Z,32.71
2022-08-17T13:03:07.819Z,32.39
2022-08-17T13:05:41.990Z,32.15
2022-08-17T13:08:24.733Z,33.03
2022-08-17T13:11:24.340Z,32.56
2022-08-17T13:13:55.276Z,33.48
2022-08-17T13:16:30.900Z,33.19
2022-08-17T13:19:03.789Z,33.56
2022-08-17T13:21:33.335Z,33.37
2022-08-17T13:24:13.920Z,33.61
2022-08-17T13:27:08.182Z,33.49
2022-08-17T13:29:44.625Z,34.08
2022-08-17T13:32:13.702Z,33.91
2022-08-17T13:34:51.384Z,33.73
2022-08-17T13:37:36.282Z,34.26
2022-08-17T13:40:09.351Z,33.88
2022-08-17T13:42:52.454Z,33.65
2022-08-17T13:45:36.886Z,33.88
2022-08-17T13:48:14.549Z,33.89
2022-08-17T13:50:56.731Z,34.21
2022-08-17T13:53:33.118Z,34.17
2022-08-17T13:56:38.056Z,32.96
2022-08-17T13:59:06.687Z,33.17
2022-08-17T14:01:54.180Z,32.64
2022-08-17T14:04:29.452Z,32.95
2022-08-17T14:07:08.892Z,33.09
2022-08-17T14:09:40.084Z,33.73
2022-08-17T14:12:11.794Z,33.26
2022-08-17T14:14:39.667Z,33.77
2022-08-17T14:17:07.873Z,32.95
2022-08-17T14:19:36.391Z,33.13
2022-08-17T14:22:05.132Z,33.10
2022-08-17T14:24:41.278Z,33.49
2022-08-17T14:27:12.459Z,33.52
2022-08-17T14:29:41.357Z,33.01
2022-08-17T14:32:24.927Z,32.96
2022-08-17T14:34:52.707Z,33.09
2022-08-17T14:37:21.141Z,33.20
2022-08-17T14:39:48.531Z,33.17
2022-08-17T14:42:17.677Z,32.94
2022-08-17T14:44:44.840Z,33.16
2022-08-17T14:47:16.017Z,33.34
2022-08-17T14:49:43.846Z,33.07
2022-08-17T14:52:18.424Z,33.44
2022-08-17T14:54:46.028Z,33.34
2022-08-17T14:57:25.246Z,33.13
2022-08-17T15:00:01.532Z,33.50
2022-08-17T15:02:48.934Z,33.86
2022-08-17T15:05:17.494Z,33.75
2022-08-17T15:07:44.775Z,33.69
2022-08-17T15:10:13.676Z,34.15
2022-08-17T15:12:41.602Z,34.19
2022-08-17T15:15:12.128Z,33.67
2022-08-17T15:17:43.846Z,34.60
2022-08-17T15:20:16.797Z,34.87
2022-08-17T15:22:45.665Z,34.80
2022-08-17T15:25:13.158Z,34.58
2022-08-17T15:27:40.605Z,34.90
2022-08-17T15:30:10.107Z,35.10
2022-08-17T15:32:40.707Z,34.77
2022-08-17T15:35:11.879Z,35.18
2022-08-17T15:37:40.474Z,34.98
2022-08-17T15:40:09.717Z,35.13
2022-08-17T15:42:38.633Z,35.49
2022-08-17T15:45:13.636Z,35.72
2022-08-17T15:47:40.987Z,35.42
2022-08-17T15:50:09.329Z,35.69
2022-08-17T15:52:40.342Z,36.17
2022-08-17T15:55:12.620Z,36.37
2022-08-17T15:57:40.235Z,36.50
2022-08-17T16:00:08.829Z,36.52
2022-08-17T16:03:44.388Z,36.38
2022-08-17T16:05:31.229Z,36.65
2022-08-17T16:07:59.933Z,36.60
2022-08-17T16:10:35.009Z,38.14
2022-08-17T16:13:04.321Z,37.99
2022-08-17T16:15:32.121Z,38.16
2022-08-17T16:17:59.609Z,38.37
2022-08-17T16:20:27.495Z,38.66
2022-08-17T16:22:55.145Z,38.72
2022-08-17T16:25:47.171Z,38.87
2022-08-17T16:28:17.674Z,38.86
2022-08-17T16:30:45.560Z,39.09
2022-08-17T16:33:12.928Z,39.21
2022-08-17T16:35:40.050Z,39.07
2022-08-17T16:38:07.457Z,39.54
2022-08-17T16:40:36.220Z,39.20
2022-08-17T16:43:07.132Z,39.50
2022-08-17T16:45:36.966Z,39.83
2022-08-17T16:48:04.729Z,39.93
2022-08-17T16:50:32.689Z,40.26
2022-08-17T16:53:10.774Z,39.73
2022-08-17T16:55:38.855Z,39.87
2022-08-17T16:58:08.881Z,39.95
2022-08-17T17:00:36.875Z,40.41
2022-08-17T17:03:31.812Z,40.43
2022-08-17T17:06:13.761Z,40.23
2022-08-17T17:08:49.257Z,40.42
2022-08-17T17:11:25.163Z,40.73
2022-08-17T17:13:59.724Z,41.02
2022-08-17T17:17:15.141Z,41.43
2022-08-17T17:20:08.094Z,41.39
2022-08-17T17:22:43.789Z,41.14
2022-08-17T17:25:17.540Z,41.57
2022-08-17T17:28:35.778Z,41.42
2022-08-17T17:31:23.866Z,41.69
2022-08-17T17:34:00.542Z,41.67
2022-08-17T17:36:48.436Z,41.66
2022-08-17T17:39:43.882Z,41.59
2022-08-17T17:42:19.883Z,42.10
2022-08-17T17:44:55.782Z,41.74
2022-08-17T17:47:23.032Z,41.70
2022-08-17T17:49:50.465Z,42.07
2022-08-17T17:52:20.318Z,41.73
2022-08-17T17:54:48.060Z,41.99
2022-08-17T17:57:39.538Z,42.86
2022-08-17T18:00:24.762Z,42.42
2022-08-17T18:03:01.341Z,42.17
2022-08-17T18:05:49.019Z,42.58
2022-08-17T18:08:34.107Z,42.67
2022-08-17T18:11:13.228Z,43.24
2022-08-17T18:14:20.043Z,42.93
2022-08-17T18:16:55.731Z,43.75
2022-08-17T18:19:25.692Z,43.21
2022-08-17T18:22:14.913Z,43.26
2022-08-17T18:24:45.962Z,43.77
2022-08-17T18:27:30.481Z,43.83
2022-08-17T18:29:59.870Z,43.67
2022-08-17T18:32:36.793Z,43.67
2022-08-17T18:35:28.130Z,43.84
2022-08-17T18:38:19.972Z,43.94
2022-08-17T18:40:58.175Z,44.19
2022-08-17T18:43:44.438Z,44.56
2022-08-17T18:46:28.909Z,44.48
2022-08-17T18:49:25.215Z,44.82
2022-08-17T18:52:07.842Z,45.02
2022-08-17T18:54:36.283Z,44.90
2022-08-17T18:57:05.336Z,44.94
2022-08-17T18:59:38.787Z,45.33
2022-08-17T19:02:45.652Z,45.09
2022-08-17T19:05:28.946Z,45.19
2022-08-17T19:08:13.913Z,45.04
2022-08-17T19:10:46.176Z,45.14
2022-08-17T19:13:34.212Z,45.69
2022-08-17T19:16:18.371Z,45.09
2022-08-17T19:18:58.828Z,45.22
2022-08-17T19:21:56.239Z,45.34
2022-08-17T19:24:26.609Z,45.17
2022-08-17T19:27:02.417Z,45.43
2022-08-17T19:29:51.912Z,45.39
2022-08-17T19:32:27.022Z,45.51
2022-08-17T19:34:55.339Z,45.43
2022-08-17T19:38:01.538Z,45.70
2022-08-17T19:40:52.747Z,46.02
2022-08-17T19:43:42.190Z,46.13
2022-08-17T19:46:13.952Z,46.28
2022-08-17T19:48:46.984Z,46.52
2022-08-17T19:51:31.616Z,46.64
2022-08-17T19:54:10.562Z,46.99
2022-08-17T19:56:58.927Z,47.33
2022-08-17T20:00:09.097Z,47.57
2022-08-17T20:02:52.921Z,47.68
2022-08-17T20:06:36.801Z,47.96
2022-08-17T20:09:16.711Z,48.12
2022-08-17T20:11:49.129Z,48.45
2022-08-17T20:14:24.770Z,48.46
2022-08-17T20:16:52.526Z,48.43
2022-08-17T20:19:45.649Z,48.88
2022-08-17T20:22:21.239Z,48.82
2022-08-17T20:24:51.409Z,49.11
2022-08-17T20:27:32.126Z,48.93
2022-08-17T20:30:01.801Z,49.18
2022-08-17T20:32:36.901Z,49.08
2022-08-17T20:35:26.210Z,49.36
2022-08-17T20:37:55.700Z,49.07
2022-08-17T20:40:28.540Z,49.11
2022-08-17T20:42:57.408Z,49.51
2022-08-17T20:45:26.407Z,49.39
2022-08-17T20:48:23.997Z,49.63
2022-08-17T20:50:56.273Z,50.00
2022-08-17T20:53:48.293Z,50.28
2022-08-17T20:56:44.583Z,50.52
2022-08-17T20:59:21.077Z,50.47
2022-08-17T21:02:19.115Z,50.95
2022-08-17T21:04:50.013Z,51.14
2022-08-17T21:07:43.733Z,51.10
2022-08-17T21:10:26.393Z,51.40
2022-08-17T21:13:10.314Z,51.69
2022-08-17T21:15:57.395Z,51.62
2022-08-17T21:18:49.825Z,51.71
2022-08-17T21:21:26.100Z,51.83
2022-08-17T21:24:19.467Z,52.29
2022-08-17T21:27:26.540Z,52.74
2022-08-17T21:30:13.274Z,52.39
2022-08-17T21:32:42.264Z,52.49
2022-08-17T21:35:28.730Z,53.07
2022-08-17T21:38:02.500Z,53.30
2022-08-17T21:40:31.413Z,53.33
2022-08-17T21:43:17.134Z,53.83
2022-08-17T21:45:55.589Z,53.92
2022-08-17T21:48:25.560Z,54.10
2022-08-17T21:51:01.982Z,54.31
2022-08-17T21:53:36.794Z,54.48
2022-08-17T21:56:05.182Z,54.76
2022-08-17T21:58:40.238Z,54.78
2022-08-17T22:01:13.682Z,55.48
2022-08-17T22:03:47.893Z,55.23
2022-08-17T22:06:33.552Z,55.53
2022-08-17T22:09:22.478Z,55.78
2022-08-17T22:11:57.889Z,55.77
2022-08-17T22:14:52.247Z,55.82
2022-08-17T22:17:35.538Z,56.25
2022-08-17T22:20:14.415Z,56.32
2022-08-17T22:23:09.120Z,56.52
2022-08-17T22:25:39.955Z,56.68
2022-08-17T22:28:12.936Z,56.84
2022-08-17T22:30:42.249Z,56.92
2022-08-17T22:33:39.708Z,57.24
2022-08-17T22:36:09.985Z,57.57
2022-08-17T22:38:38.295Z,57.65
2022-08-17T22:41:17.510Z,57.51
2022-08-17T22:43:45.024Z,57.62
2022-08-17T22:46:12.831Z,57.70
2022-08-17T22:48:48.697Z,57.80
2022-08-17T22:51:21.450Z,57.80
2022-08-17T22:54:08.984Z,57.88
2022-08-17T22:56:55.785Z,57.85
2022-08-17T22:59:43.833Z,57.81
2022-08-17T23:02:16.349Z,58.11
2022-08-17T23:04:47.879Z,58.69
2022-08-17T23:07:16.003Z,58.43
2022-08-17T23:09:43.825Z,58.86
2022-08-17T23:12:16.091Z,59.02
2022-08-17T23:14:45.799Z,59.04
2022-08-17T23:17:13.573Z,59.27
2022-08-17T23:19:40.844Z,59.39
2022-08-17T23:22:09.702Z,59.64
2022-08-17T23:24:46.445Z,59.90
2022-08-17T23:27:13.853Z,59.89
2022-08-17T23:29:42.293Z,60.19
2022-08-17T23:32:13.674Z,59.99
2022-08-17T23:34:42.528Z,60.07
2022-08-17T23:37:11.454Z,60.18
2022-08-17T23:39:39.531Z,60.51
2022-08-17T23:42:10.711Z,60.15
2022-08-17T23:44:40.675Z,60.48
2022-08-17T23:47:08.172Z,60.35
2022-08-17T23:49:36.444Z,60.55
2022-08-17T23:52:07.094Z,60.47
2022-08-17T23:54:43.833Z,60.47
2022-08-17T23:57:13.862Z,60.61
2022-08-17T23:59:43.917Z,60.91
